Time;durP1;ratioP1;P1;durP2;ratioP2;P2;SDS_P1;SDS_P2;PMS_P1;PMS_P2;Temp;Humidity;BMP_temperature;BMP_pressure;BME280_temperature;BME280_humidity;BME280_pressure;Samples;Min_cycle;Max_cycle;Signal;HPM_P1;HPM_P2
2023/10/01 00:01:44;;;;;;;16.83;7.00;;;14.10;99.90;;;;;;5035036;28;20047;-77
2023/10/01 00:04:11;;;;;;;15.80;7.15;;;14.00;99.90;;;;;;5033952;28;20478;-78
2023/10/01 00:06:38;;;;;;;18.52;8.30;;;14.10;99.90;;;;;;5034131;28;20029;-78
2023/10/01 00:09:07;;;;;;;17.75;7.50;;;14.00;99.90;;;;;;5016850;28;20025;-78
2023/10/01 00:11:37;;;;;;;15.90;7.50;;;14.00;99.90;;;;;;5016766;28;20025;-77
2023/10/01 00:14:08;;;;;;;16.92;7.45;;;14.00;99.90;;;;;;5034093;28;20036;-77
2023/10/01 00:16:37;;;;;;;16.70;7.10;;;13.90;99.90;;;;;;4999529;28;20095;-77
2023/10/01 00:19:03;;;;;;;15.27;7.40;;;13.90;99.90;;;;;;5034288;28;20028;-77
2023/10/01 00:21:29;;;;;;;18.33;8.02;;;13.80;99.90;;;;;;5034631;28;20033;-77
2023/10/01 00:23:54;;;;;;;18.27;8.23;;;13.80;99.90;;;;;;5035047;28;20429;-77
2023/10/01 00:26:20;;;;;;;16.80;7.45;;;13.70;99.90;;;;;;5034909;28;20034;-77
2023/10/01 00:28:49;;;;;;;17.83;7.05;;;13.70;99.90;;;;;;5034287;28;20076;-77
2023/10/01 00:31:17;;;;;;;16.40;6.82;;;13.70;99.90;;;;;;5034267;28;20028;-77
2023/10/01 00:33:47;;;;;;;18.02;8.00;;;13.70;99.90;;;;;;5033421;28;20100;-77
2023/10/01 00:36:13;;;;;;;17.70;6.82;;;13.70;99.90;;;;;;5023738;28;20025;-77
2023/10/01 00:38:38;;;;;;;19.88;7.70;;;13.60;99.90;;;;;;5015066;28;20030;-77
2023/10/01 00:41:07;;;;;;;15.00;7.25;;;13.60;99.90;;;;;;5014914;28;20501;-77
2023/10/01 00:43:33;;;;;;;16.00;7.07;;;13.60;99.90;;;;;;5015115;28;20029;-77
2023/10/01 00:45:59;;;;;;;17.73;7.95;;;13.50;99.90;;;;;;5016088;28;20428;-77
2023/10/01 00:48:25;;;;;;;15.48;6.82;;;13.50;99.90;;;;;;4996839;28;20037;-77
2023/10/01 00:50:54;;;;;;;18.25;7.53;;;13.50;99.90;;;;;;5029551;28;20033;-77
2023/10/01 00:53:21;;;;;;;17.30;7.18;;;13.50;99.90;;;;;;5016890;28;20116;-77
2023/10/01 00:55:48;;;;;;;16.90;7.38;;;13.50;99.90;;;;;;5031869;28;20030;-77
2023/10/01 00:58:15;;;;;;;16.60;7.20;;;13.50;99.90;;;;;;5033536;28;20029;-77
2023/10/01 01:00:43;;;;;;;22.15;8.40;;;13.50;99.90;;;;;;5016101;28;20033;-77
2023/10/01 01:03:09;;;;;;;20.02;7.85;;;13.50;99.90;;;;;;5009652;28;20064;-77
2023/10/01 01:05:41;;;;;;;19.20;8.13;;;13.40;99.90;;;;;;5025947;28;20143;-77
2023/10/01 01:08:20;;;;;;;21.08;8.38;;;13.40;99.90;;;;;;4996663;28;20117;-77
2023/10/01 01:10:49;;;;;;;21.45;8.45;;;13.30;99.90;;;;;;5014568;28;20022;-77
2023/10/01 01:13:16;;;;;;;20.80;8.48;;;13.30;99.90;;;;;;5014651;28;20022;-77
2023/10/01 01:15:45;;;;;;;21.85;8.68;;;13.30;99.90;;;;;;5015127;28;20022;-77
2023/10/01 01:18:13;;;;;;;15.55;7.25;;;13.30;99.90;;;;;;5026729;28;20037;-77
2023/10/01 01:20:45;;;;;;;18.92;8.07;;;13.20;99.90;;;;;;5037263;28;20021;-77
2023/10/01 01:23:18;;;;;;;20.70;8.80;;;13.20;99.90;;;;;;5019749;28;20038;-77
2023/10/01 01:25:49;;;;;;;22.15;8.68;;;13.20;99.90;;;;;;5018544;28;20033;-77
2023/10/01 01:28:24;;;;;;;20.20;8.40;;;13.10;99.90;;;;;;5019605;28;20026;-77
2023/10/01 01:30:53;;;;;;;22.65;8.23;;;13.10;99.90;;;;;;5018946;28;20037;-77
2023/10/01 01:33:26;;;;;;;18.17;8.13;;;13.10;99.90;;;;;;5015066;28;20032;-77
2023/10/01 01:35:54;;;;;;;15.45;7.10;;;13.10;99.90;;;;;;5037687;28;20034;-77
2023/10/01 01:38:23;;;;;;;16.42;7.45;;;13.10;99.90;;;;;;5037895;28;20026;-77
2023/10/01 01:40:51;;;;;;;17.38;8.00;;;13.10;99.90;;;;;;5036741;28;20183;-77
2023/10/01 01:43:21;;;;;;;18.63;7.55;;;13.10;99.90;;;;;;5037412;28;20025;-77
2023/10/01 01:45:54;;;;;;;16.05;6.90;;;13.10;99.90;;;;;;5019833;28;20084;-77
2023/10/01 01:51:00;;;;;;;19.33;7.82;;;13.10;99.90;;;;;;5029900;28;20474;-77
2023/10/01 01:53:36;;;;;;;19.55;7.93;;;13.10;99.90;;;;;;5000482;28;20494;-77
2023/10/01 01:56:16;;;;;;;19.50;8.15;;;13.00;99.90;;;;;;5017611;28;20050;-77
2023/10/01 01:58:43;;;;;;;18.52;7.65;;;13.00;99.90;;;;;;5017747;28;20033;-77
2023/10/01 02:03:39;;;;;;;23.33;8.80;;;13.00;99.90;;;;;;5034991;28;20029;-77
2023/10/01 02:06:06;;;;;;;19.67;7.97;;;13.00;99.90;;;;;;5037471;28;20043;-77
2023/10/01 02:11:14;;;;;;;18.05;7.57;;;12.90;99.90;;;;;;5009969;28;20030;-77
2023/10/01 02:13:41;;;;;;;17.55;7.88;;;12.90;99.90;;;;;;5017476;28;20033;-77
2023/10/01 02:19:02;;;;;;;17.67;8.00;;;12.80;99.90;;;;;;5037314;28;20033;-77
2023/10/01 02:21:43;;;;;;;16.48;7.47;;;12.80;99.90;;;;;;5007682;28;20041;-77
2023/10/01 02:24:12;;;;;;;;;;;12.80;99.90;;;;;;5027919;28;20072;-77
2023/10/01 02:26:42;;;;;;;20.77;9.65;;;12.80;99.90;;;;;;5029360;28;19984;-77
2023/10/01 02:29:16;;;;;;;25.63;10.65;;;12.80;99.90;;;;;;5026600;28;20029;-77
2023/10/01 02:31:48;;;;;;;21.73;10.73;;;12.80;99.90;;;;;;5000708;28;20080;-77
2023/10/01 02:34:18;;;;;;;25.23;11.00;;;12.70;99.90;;;;;;5036368;28;20028;-77
2023/10/01 02:36:44;;;;;;;23.02;11.15;;;12.70;99.90;;;;;;5036711;28;20024;-77
2023/10/01 02:39:27;;;;;;;19.38;10.00;;;12.70;99.90;;;;;;5036268;28;20029;-77
2023/10/01 02:44:32;;;;;;;17.08;7.57;;;12.70;99.90;;;;;;5020780;28;20386;-77
2023/10/01 02:47:03;;;;;;;19.10;8.43;;;12.70;99.90;;;;;;5022927;28;20030;-77
2023/10/01 02:49:32;;;;;;;15.93;7.03;;;12.70;99.90;;;;;;5026763;28;20072;-77
2023/10/01 02:52:03;;;;;;;13.80;6.78;;;12.60;99.90;;;;;;4998974;28;20041;-77
2023/10/01 02:54:30;;;;;;;15.90;6.68;;;12.60;99.90;;;;;;5006487;28;20018;-77
2023/10/01 02:57:23;;;;;;;18.92;7.47;;;12.60;99.90;;;;;;5024366;28;20108;-78
2023/10/01 03:02:58;;;;;;;18.48;7.47;;;12.60;99.90;;;;;;4948029;29;20399;-77
2023/10/01 03:05:28;;;;;;;21.75;9.13;;;12.60;99.90;;;;;;5006679;28;20046;-77
2023/10/01 03:07:56;;;;;;;20.38;8.65;;;12.50;99.90;;;;;;5015407;28;20083;-77
2023/10/01 03:10:26;;;;;;;26.10;9.38;;;12.50;99.90;;;;;;5019902;28;20428;-77
2023/10/01 03:12:57;;;;;;;27.13;9.90;;;12.50;99.90;;;;;;5029090;28;20025;-77
2023/10/01 03:15:24;;;;;;;24.00;9.20;;;12.50;99.90;;;;;;5010097;28;20492;-77
2023/10/01 03:17:57;;;;;;;26.30;9.30;;;12.60;99.90;;;;;;5003506;28;20540;-77
2023/10/01 03:23:12;;;;;;;21.08;9.02;;;12.60;99.90;;;;;;5016188;28;20030;-77
2023/10/01 03:25:42;;;;;;;24.27;9.40;;;12.60;99.90;;;;;;5029952;28;20021;-77
2023/10/01 03:28:25;;;;;;;23.63;9.60;;;12.60;99.90;;;;;;5019420;28;20133;-77
2023/10/01 03:31:06;;;;;;;28.08;10.38;;;12.60;99.90;;;;;;5028773;28;20038;-77
2023/10/01 03:33:33;;;;;;;28.15;10.02;;;12.60;99.90;;;;;;5032166;28;20024;-77
2023/10/01 03:35:59;;;;;;;29.67;10.75;;;12.60;99.90;;;;;;5001597;28;20490;-77
2023/10/01 03:38:25;;;;;;;30.63;11.55;;;12.70;99.90;;;;;;4998591;28;20030;-78
2023/10/01 03:41:00;;;;;;;35.38;13.15;;;12.60;99.90;;;;;;5022143;28;20033;-77
2023/10/01 03:43:32;;;;;;;29.00;11.43;;;12.60;99.90;;;;;;5034532;28;20036;-77
2023/10/01 03:48:59;;;;;;;28.40;10.80;;;12.60;99.90;;;;;;5022290;28;20033;-77
2023/10/01 03:51:53;;;;;;;24.20;9.40;;;12.60;99.90;;;;;;5023885;28;20075;-77
2023/10/01 03:55:25;;;;;;;22.50;8.90;;;12.60;99.90;;;;;;5032014;28;20026;-77
2023/10/01 03:57:16;;;;;;;27.90;9.80;;;12.60;99.90;;;;;;5014548;28;20073;-77
2023/10/01 03:59:51;;;;;;;28.57;10.00;;;12.60;99.90;;;;;;5021127;28;20038;-77
2023/10/01 04:02:27;;;;;;;28.27;10.65;;;12.50;99.90;;;;;;5033851;28;20418;-77
2023/10/01 04:04:57;;;;;;;26.52;9.70;;;12.50;99.90;;;;;;5028415;28;20034;-77
2023/10/01 04:07:40;;;;;;;28.83;10.20;;;12.50;99.90;;;;;;5027266;28;20025;-77
2023/10/01 04:10:28;;;;;;;27.42;10.57;;;12.50;99.90;;;;;;5018092;28;20029;-77
2023/10/01 04:12:55;;;;;;;30.80;11.23;;;12.50;99.90;;;;;;5026966;28;20061;-77
2023/10/01 04:15:28;;;;;;;28.75;11.32;;;12.50;99.90;;;;;;5025837;28;20102;-77
2023/10/01 04:23:47;;;;;;;27.08;10.30;;;12.50;99.90;;;;;;5029973;28;20033;-77
2023/10/01 04:26:16;;;;;;;28.52;10.45;;;12.50;99.90;;;;;;5018087;28;20029;-77
2023/10/01 04:28:45;;;;;;;27.80;10.70;;;12.40;99.90;;;;;;5028202;28;20026;-77
2023/10/01 04:31:19;;;;;;;31.42;11.25;;;12.40;99.90;;;;;;5024355;28;20075;-77
2023/10/01 04:33:50;;;;;;;25.77;10.20;;;12.40;99.90;;;;;;5033911;28;20017;-77
2023/10/01 04:36:16;;;;;;;28.27;10.45;;;12.40;99.90;;;;;;5017737;28;20145;-77
2023/10/01 04:38:44;;;;;;;33.30;11.13;;;12.40;99.90;;;;;;5028307;28;20053;-77
2023/10/01 04:41:19;;;;;;;34.67;11.38;;;12.40;99.90;;;;;;5024101;28;20025;-77
2023/10/01 04:46:30;;;;;;;33.13;11.80;;;12.40;99.90;;;;;;5018772;28;20434;-77
2023/10/01 04:48:56;;;;;;;25.33;10.07;;;12.40;99.90;;;;;;5008639;28;20069;-77
2023/10/01 04:51:22;;;;;;;24.35;10.13;;;12.40;99.90;;;;;;5025328;28;20069;-77
2023/10/01 04:53:49;;;;;;;28.25;11.50;;;12.40;99.90;;;;;;5019590;28;20037;-77
2023/10/01 04:56:21;;;;;;;32.80;11.02;;;12.40;99.90;;;;;;5031231;28;20105;-77
2023/10/01 04:58:54;;;;;;;30.27;11.07;;;12.40;99.90;;;;;;5021637;28;20060;-77
2023/10/01 05:01:27;;;;;;;26.70;11.27;;;12.40;99.90;;;;;;5023113;28;20022;-77
2023/10/01 05:03:56;;;;;;;28.17;10.63;;;12.40;99.90;;;;;;4999800;28;20034;-77
2023/10/01 05:06:22;;;;;;;30.58;12.10;;;12.30;99.90;;;;;;5030120;28;20026;-77
2023/10/01 05:08:51;;;;;;;34.22;12.40;;;12.30;99.90;;;;;;5020047;28;20087;-76
2023/10/01 05:11:21;;;;;;;30.65;10.63;;;12.30;99.90;;;;;;5022387;28;20044;-77
2023/10/01 05:13:51;;;;;;;32.85;11.55;;;12.30;99.90;;;;;;5030206;28;20100;-77
2023/10/01 05:16:18;;;;;;;32.75;12.30;;;12.30;99.90;;;;;;5012412;28;20029;-76
2023/10/01 05:18:48;;;;;;;34.42;12.00;;;12.30;99.90;;;;;;5029948;28;20116;-76
2023/10/01 05:21:14;;;;;;;31.90;11.45;;;12.30;99.90;;;;;;5027048;28;20033;-76
2023/10/01 05:23:42;;;;;;;27.42;11.45;;;12.30;99.90;;;;;;5028836;28;20026;-77
2023/10/01 05:26:10;;;;;;;26.83;10.00;;;12.30;99.90;;;;;;5031492;28;20022;-76
2023/10/01 05:28:36;;;;;;;29.25;10.85;;;12.30;99.90;;;;;;5030164;28;20040;-76
2023/10/01 05:31:14;;;;;;;31.30;12.80;;;12.30;99.90;;;;;;5028234;28;20022;-76
2023/10/01 05:33:46;;;;;;;26.38;10.30;;;12.30;99.90;;;;;;5029980;28;20030;-76
2023/10/01 05:36:16;;;;;;;28.20;10.15;;;12.30;99.90;;;;;;5027101;28;20045;-76
2023/10/01 05:38:44;;;;;;;27.80;10.85;;;12.30;99.90;;;;;;5026884;28;20087;-76
2023/10/01 05:41:13;;;;;;;31.38;12.02;;;12.30;99.90;;;;;;5014981;28;20036;-76
2023/10/01 05:43:50;;;;;;;27.48;10.80;;;12.30;99.90;;;;;;5015138;28;20025;-76
2023/10/01 05:46:22;;;;;;;30.67;11.60;;;12.30;99.90;;;;;;5031627;28;20076;-77
2023/10/01 05:48:55;;;;;;;25.33;10.20;;;12.30;99.90;;;;;;5032283;28;20067;-76
2023/10/01 05:51:30;;;;;;;24.33;9.52;;;12.40;99.90;;;;;;5030704;28;20026;-76
2023/10/01 05:53:57;;;;;;;25.48;10.55;;;12.40;99.90;;;;;;5032507;28;20056;-77
2023/10/01 05:56:36;;;;;;;20.88;9.27;;;12.40;99.90;;;;;;5030020;28;20018;-76
2023/10/01 05:59:03;;;;;;;21.02;9.88;;;12.40;99.90;;;;;;5029321;28;20079;-77
2023/10/01 06:01:33;;;;;;;20.80;9.30;;;12.40;99.90;;;;;;5032430;28;20033;-77
2023/10/01 06:03:59;;;;;;;19.15;9.55;;;12.40;99.90;;;;;;5029835;28;20021;-77
2023/10/01 06:06:25;;;;;;;22.23;10.10;;;12.40;99.90;;;;;;5014969;28;20478;-76
2023/10/01 06:08:58;;;;;;;21.83;9.57;;;12.40;99.90;;;;;;5034863;28;20032;-76
2023/10/01 06:14:29;;;;;;;15.68;8.05;;;12.40;99.90;;;;;;5019883;28;20068;-76
2023/10/01 06:17:00;;;;;;;19.10;8.70;;;12.40;99.90;;;;;;5033896;28;20022;-76
2023/10/01 06:19:32;;;;;;;20.92;9.68;;;12.40;99.90;;;;;;5033915;28;20030;-76
2023/10/01 06:22:12;;;;;;;20.63;8.38;;;12.40;99.90;;;;;;5035041;28;20042;-77
2023/10/01 06:24:39;;;;;;;20.48;9.18;;;12.40;99.90;;;;;;5030656;28;20064;-77
2023/10/01 06:27:06;;;;;;;16.17;7.63;;;12.50;99.90;;;;;;5036353;28;20030;-77
2023/10/01 06:29:33;;;;;;;17.05;7.50;;;12.50;99.90;;;;;;5037257;28;20049;-77
2023/10/01 06:32:01;;;;;;;18.58;8.52;;;12.50;99.90;;;;;;5031849;28;20037;-77
2023/10/01 06:34:32;;;;;;;20.05;9.30;;;12.60;99.90;;;;;;5031820;28;20553;-77
2023/10/01 06:36:59;;;;;;;17.27;8.20;;;12.50;99.90;;;;;;5014071;28;20033;-77
2023/10/01 06:39:29;;;;;;;15.77;7.43;;;12.60;99.90;;;;;;5036620;28;20049;-77
2023/10/01 06:42:18;;;;;;;20.25;9.27;;;12.60;99.90;;;;;;5036709;28;20022;-77
2023/10/01 06:44:44;;;;;;;19.02;9.38;;;12.60;99.90;;;;;;5036365;28;20038;-77
2023/10/01 06:47:17;;;;;;;23.58;9.15;;;12.70;99.90;;;;;;5039031;28;20072;-78
2023/10/01 06:52:34;;;;;;;20.00;9.50;;;12.70;99.90;;;;;;5036124;28;20474;-77
2023/10/01 06:55:04;;;;;;;19.40;8.07;;;12.70;99.90;;;;;;5030063;28;20085;-78
2023/10/01 06:57:33;;;;;;;17.83;7.90;;;12.70;99.90;;;;;;5038211;28;20049;-77
2023/10/01 07:00:21;;;;;;;12.90;6.85;;;12.70;99.90;;;;;;5037161;28;20030;-78
2023/10/01 07:02:51;;;;;;;15.52;7.57;;;12.80;99.90;;;;;;5032607;28;20496;-78
2023/10/01 07:05:23;;;;;;;16.30;7.53;;;12.80;99.90;;;;;;5011009;28;20030;-78
2023/10/01 07:07:49;;;;;;;17.60;7.72;;;12.90;99.90;;;;;;5013997;28;20120;-77
2023/10/01 07:10:19;;;;;;;12.50;6.85;;;12.90;99.90;;;;;;5033877;28;20022;-78
2023/10/01 07:12:57;;;;;;;12.30;6.43;;;12.90;99.90;;;;;;5041262;28;20017;-78
2023/10/01 07:15:25;;;;;;;16.45;7.20;;;12.90;99.90;;;;;;5009947;28;20261;-78
2023/10/01 07:17:52;;;;;;;15.05;6.90;;;13.00;99.90;;;;;;5010189;28;20045;-78
2023/10/01 07:20:18;;;;;;;17.00;7.90;;;13.00;99.90;;;;;;5009088;28;20049;-78
2023/10/01 07:22:44;;;;;;;16.58;7.60;;;13.00;99.90;;;;;;5040792;28;20034;-78
2023/10/01 07:25:28;;;;;;;16.65;8.27;;;13.10;99.90;;;;;;5028071;28;20470;-78
2023/10/01 07:27:57;;;;;;;14.77;7.50;;;13.10;99.90;;;;;;5044872;28;20029;-78
2023/10/01 07:30:39;;;;;;;15.35;7.15;;;13.10;99.90;;;;;;5041060;28;20420;-78
2023/10/01 07:33:05;;;;;;;14.57;7.78;;;13.20;99.90;;;;;;5035862;28;20454;-77
2023/10/01 07:35:34;;;;;;;17.83;8.52;;;13.30;99.90;;;;;;5035886;28;20072;-77
2023/10/01 07:38:00;;;;;;;15.50;7.72;;;13.40;99.90;;;;;;5035371;28;20029;-77
2023/10/01 07:40:25;;;;;;;16.33;7.55;;;13.40;99.90;;;;;;5035312;28;20032;-77
2023/10/01 07:42:57;;;;;;;14.27;7.30;;;13.50;99.90;;;;;;5035776;28;20102;-78
2023/10/01 07:45:23;;;;;;;16.92;8.02;;;13.50;99.90;;;;;;5037661;28;20086;-78
2023/10/01 07:47:49;;;;;;;16.00;7.82;;;13.60;99.90;;;;;;5018638;28;20132;-78
2023/10/01 07:50:16;;;;;;;20.50;8.68;;;13.70;99.90;;;;;;5038316;28;20056;-78
2023/10/01 07:52:44;;;;;;;18.90;8.88;;;13.70;99.90;;;;;;5023989;28;20093;-79
2023/10/01 07:58:22;;;;;;;17.88;7.35;;;13.80;99.90;;;;;;5042983;28;20089;-79
2023/10/01 08:00:47;;;;;;;16.05;7.47;;;14.00;99.90;;;;;;5028335;28;20034;-79
2023/10/01 08:05:49;;;;;;;17.98;8.80;;;14.10;99.90;;;;;;5043231;28;20061;-79
2023/10/01 08:08:27;;;;;;;16.85;7.05;;;14.20;99.90;;;;;;5043701;28;20029;-79
2023/10/01 08:10:54;;;;;;;20.40;8.88;;;14.30;99.90;;;;;;5027191;28;20068;-78
2023/10/01 08:13:25;;;;;;;17.70;8.93;;;14.40;99.90;;;;;;5015091;28;20052;-79
2023/10/01 08:15:57;;;;;;;23.10;10.77;;;14.60;99.90;;;;;;5031930;28;20558;-79
2023/10/01 08:18:35;;;;;;;18.10;9.65;;;14.70;99.90;;;;;;5034820;28;20386;-79
2023/10/01 08:21:15;;;;;;;18.92;10.55;;;14.80;99.90;;;;;;5020542;28;20108;-79
2023/10/01 08:23:54;;;;;;;24.98;11.15;;;15.00;99.90;;;;;;5023386;28;20035;-76
2023/10/01 08:26:43;;;;;;;22.17;11.02;;;15.10;99.90;;;;;;5029345;28;20482;-76
2023/10/01 08:29:09;;;;;;;22.52;10.95;;;15.30;99.90;;;;;;5001795;28;20044;-76
2023/10/01 08:34:27;;;;;;;23.77;11.07;;;15.60;99.90;;;;;;5016298;28;20029;-77
2023/10/01 08:36:57;;;;;;;24.40;11.05;;;15.70;99.90;;;;;;5005158;28;20037;-77
2023/10/01 08:39:47;;;;;;;24.93;12.23;;;15.80;99.90;;;;;;5006498;28;20034;-77
2023/10/01 08:42:13;;;;;;;23.40;11.32;;;15.90;99.90;;;;;;5032488;28;20030;-77
2023/10/01 08:44:45;;;;;;;24.70;11.95;;;16.00;99.90;;;;;;5024316;28;20029;-77
2023/10/01 08:47:32;;;;;;;25.52;12.77;;;16.10;99.90;;;;;;5024759;28;20026;-76
2023/10/01 08:53:01;;;;;;;22.52;11.32;;;16.30;99.90;;;;;;5030796;28;20037;-76
2023/10/01 08:58:48;;;;;;;20.92;10.48;;;16.40;99.90;;;;;;5033743;28;20029;-76
2023/10/01 09:01:19;;;;;;;21.55;10.85;;;16.60;99.90;;;;;;5026724;28;20112;-76
2023/10/01 09:03:49;;;;;;;21.95;10.90;;;16.80;99.90;;;;;;5022774;28;20470;-77
2023/10/01 09:06:24;;;;;;;22.25;11.02;;;16.90;99.90;;;;;;5026105;28;20100;-77
2023/10/01 09:08:54;;;;;;;22.80;10.40;;;17.00;99.90;;;;;;5012437;28;20034;-77
2023/10/01 09:11:47;;;;;;;19.98;10.63;;;17.10;99.90;;;;;;5032619;28;20056;-77
2023/10/01 09:14:20;;;;;;;23.27;11.73;;;17.20;99.90;;;;;;5034011;28;20024;-76
2023/10/01 09:16:49;;;;;;;25.02;12.02;;;17.20;99.90;;;;;;5018433;28;20029;-77
2023/10/01 09:19:31;;;;;;;23.17;11.52;;;17.20;99.90;;;;;;5016271;28;20025;-77
2023/10/01 09:25:30;;;;;;;21.60;11.35;;;17.40;99.90;;;;;;5023530;28;20093;-80
2023/10/01 09:27:58;;;;;;;27.83;11.82;;;17.50;99.90;;;;;;5024124;28;20041;-79
2023/10/01 09:30:29;;;;;;;23.92;11.15;;;17.60;99.90;;;;;;5036164;28;20021;-77
2023/10/01 09:32:56;;;;;;;21.48;10.52;;;17.70;99.90;;;;;;5012124;28;20021;-78
2023/10/01 09:35:30;;;;;;;23.23;11.02;;;17.90;99.90;;;;;;5032377;28;20068;-77
2023/10/01 09:38:11;;;;;;;23.10;11.63;;;18.00;99.90;;;;;;5035695;28;20033;-79
2023/10/01 09:40:42;;;;;;;25.15;11.50;;;18.10;99.90;;;;;;5017183;28;20490;-77
2023/10/01 09:43:18;;;;;;;24.60;11.38;;;18.20;99.90;;;;;;5034972;28;20030;-77
2023/10/01 09:45:46;;;;;;;24.10;11.40;;;18.30;99.90;;;;;;5034892;28;20025;-77
2023/10/01 09:48:28;;;;;;;20.67;10.13;;;18.40;99.90;;;;;;5035018;28;20032;-77
2023/10/01 09:51:08;;;;;;;22.33;9.77;;;18.60;99.90;;;;;;5018786;28;20462;-76
2023/10/01 09:53:44;;;;;;;21.70;9.70;;;18.70;99.90;;;;;;5036822;28;20025;-77
2023/10/01 09:56:14;;;;;;;20.05;10.10;;;18.90;99.90;;;;;;5036708;28;20028;-77
2023/10/01 09:58:46;;;;;;;22.58;10.23;;;19.00;99.90;;;;;;5036641;28;20025;-77
2023/10/01 10:01:17;;;;;;;19.55;9.45;;;19.10;99.90;;;;;;5036893;28;20105;-77
2023/10/01 10:03:43;;;;;;;;;;;19.10;99.90;;;;;;5036939;28;20037;-77
2023/10/01 10:06:10;;;;;;;18.45;8.70;;;19.30;99.90;;;;;;5036611;28;19915;-77
2023/10/01 10:08:38;;;;;;;20.92;9.40;;;19.30;99.90;;;;;;5036585;28;20456;-77
2023/10/01 10:11:24;;;;;;;21.05;9.57;;;19.40;99.90;;;;;;5018952;28;20025;-77
2023/10/01 10:13:50;;;;;;;22.80;9.52;;;19.50;99.90;;;;;;5036534;28;20057;-77
2023/10/01 10:16:30;;;;;;;19.55;8.85;;;19.60;99.90;;;;;;5018886;28;20080;-77
2023/10/01 10:19:05;;;;;;;20.00;9.35;;;19.70;99.90;;;;;;5036636;28;20088;-77
2023/10/01 10:24:35;;;;;;;21.95;9.80;;;20.00;99.90;;;;;;5036683;28;20151;-77
2023/10/01 10:27:09;;;;;;;19.83;9.35;;;20.10;99.90;;;;;;5018438;28;20113;-77
2023/10/01 10:29:46;;;;;;;19.77;9.43;;;20.20;99.90;;;;;;5036036;28;20017;-77
2023/10/01 10:32:24;;;;;;;21.30;9.70;;;20.30;99.90;;;;;;5036341;28;20036;-77
2023/10/01 10:35:04;;;;;;;23.40;10.13;;;20.40;99.90;;;;;;5018886;28;20490;-77
2023/10/01 10:37:54;;;;;;;27.10;11.23;;;20.40;99.90;;;;;;5036433;28;20026;-77
2023/10/01 10:43:02;;;;;;;19.08;9.38;;;20.60;99.90;;;;;;5035916;28;20104;-77
2023/10/01 10:45:42;;;;;;;20.02;9.98;;;20.80;99.90;;;;;;5036064;28;20424;-77
2023/10/01 10:48:09;;;;;;;23.13;10.18;;;20.90;99.90;;;;;;5035522;28;20034;-77
2023/10/01 10:50:39;;;;;;;22.33;10.02;;;21.00;99.90;;;;;;5017115;28;20060;-77
2023/10/01 10:53:14;;;;;;;24.67;10.63;;;21.10;99.90;;;;;;5035618;28;20067;-77
2023/10/01 10:55:50;;;;;;;22.83;10.25;;;21.10;99.90;;;;;;5035610;28;20042;-76
2023/10/01 10:58:15;;;;;;;23.30;10.63;;;21.20;99.90;;;;;;5035599;28;20025;-77
2023/10/01 11:00:41;;;;;;;22.08;10.65;;;21.20;99.90;;;;;;5017961;28;20040;-78
2023/10/01 11:03:11;;;;;;;21.95;10.18;;;21.30;99.90;;;;;;5020681;28;20080;-77
2023/10/01 11:05:49;;;;;;;21.92;10.05;;;21.30;99.90;;;;;;5035255;28;20029;-77
2023/10/01 11:08:27;;;;;;;20.13;10.13;;;21.40;99.90;;;;;;5036335;28;20076;-76
2023/10/01 11:11:10;;;;;;;21.17;9.95;;;21.40;99.90;;;;;;5035830;28;20045;-77
2023/10/01 11:13:45;;;;;;;22.33;9.65;;;21.50;99.90;;;;;;5035866;28;20026;-77
2023/10/01 11:16:15;;;;;;;23.13;10.35;;;21.50;99.90;;;;;;5035282;28;20473;-76
2023/10/01 11:18:50;;;;;;;22.02;9.43;;;21.60;99.90;;;;;;5018166;28;20071;-77
2023/10/01 11:21:24;;;;;;;20.45;9.52;;;21.60;99.90;;;;;;5018138;28;20030;-76
2023/10/01 11:23:53;;;;;;;22.45;10.48;;;21.70;99.90;;;;;;4997245;28;20116;-77
2023/10/01 11:26:29;;;;;;;21.42;10.25;;;21.80;99.90;;;;;;4997997;28;20026;-77
2023/10/01 11:29:01;;;;;;;21.77;9.95;;;21.80;99.90;;;;;;4997569;28;20032;-77
2023/10/01 11:31:30;;;;;;;22.30;10.32;;;21.90;99.90;;;;;;4998317;28;20029;-77
2023/10/01 11:34:21;;;;;;;19.38;9.75;;;21.90;99.90;;;;;;4996442;28;20030;-77
2023/10/01 11:36:49;;;;;;;;;;;21.90;99.90;;;;;;5014323;28;20045;-77
2023/10/01 11:39:16;;;;;;;22.48;10.43;;;22.00;99.90;;;;;;5015038;28;20258;-77
2023/10/01 11:41:45;;;;;;;22.45;10.55;;;22.10;99.90;;;;;;5013918;28;20490;-76
2023/10/01 11:44:43;;;;;;;19.88;9.85;;;22.10;99.90;;;;;;5014897;28;20037;-77
2023/10/01 11:47:25;;;;;;;19.38;10.00;;;22.20;99.90;;;;;;5014832;28;20418;-77
2023/10/01 11:50:07;;;;;;;21.35;10.25;;;22.30;99.90;;;;;;5014426;28;20109;-77
2023/10/01 11:52:33;;;;;;;24.63;10.13;;;22.40;99.90;;;;;;5014805;28;20029;-77
2023/10/01 11:54:58;;;;;;;20.58;9.88;;;22.50;99.90;;;;;;5014667;28;20022;-77
2023/10/01 11:57:31;;;;;;;21.48;10.23;;;22.60;99.90;;;;;;5014623;28;20038;-77
2023/10/01 11:59:58;;;;;;;20.83;10.40;;;22.60;99.90;;;;;;5014154;28;20026;-77
2023/10/01 12:02:33;;;;;;;22.00;10.38;;;22.70;99.90;;;;;;5021195;28;20489;-77
2023/10/01 12:05:06;;;;;;;24.05;11.02;;;22.80;99.90;;;;;;5034067;28;20025;-77
2023/10/01 12:07:43;;;;;;;22.80;10.90;;;22.80;99.10;;;;;;5034320;28;20034;-77
2023/10/01 12:11:20;;;;;;;19.88;10.00;;;22.80;99.30;;;;;;5034318;28;20079;-77
2023/10/01 12:12:57;;;;;;;22.50;10.48;;;22.90;99.90;;;;;;5020161;28;20077;-77
2023/10/01 12:15:34;;;;;;;21.88;10.10;;;22.90;99.90;;;;;;5034616;28;20351;-77
2023/10/01 12:18:17;;;;;;;20.38;9.50;;;23.10;99.90;;;;;;5034052;28;20065;-77
2023/10/01 12:20:54;;;;;;;22.67;10.65;;;23.30;99.90;;;;;;5034021;28;20029;-77
2023/10/01 12:23:22;;;;;;;21.67;10.80;;;23.40;99.90;;;;;;5034235;28;20026;-77
2023/10/01 12:28:25;;;;;;;22.50;10.48;;;23.50;98.50;;;;;;5033795;28;20029;-77
2023/10/01 12:30:58;;;;;;;21.50;10.18;;;23.50;98.80;;;;;;5033794;28;20075;-76
2023/10/01 12:33:43;;;;;;;23.58;11.15;;;23.60;98.40;;;;;;5033809;28;20100;-77
2023/10/01 12:41:56;;;;;;;23.17;11.57;;;23.80;98.30;;;;;;5005861;28;20022;-80
2023/10/01 12:44:30;;;;;;;22.65;11.65;;;23.80;97.20;;;;;;5047714;28;20026;-80
2023/10/01 12:47:06;;;;;;;21.15;10.38;;;23.90;96.60;;;;;;5032764;28;20024;-80
2023/10/01 12:49:33;;;;;;;22.30;11.10;;;24.00;96.70;;;;;;5048919;28;20033;-80
2023/10/01 12:52:00;;;;;;;20.55;10.38;;;24.10;97.40;;;;;;5045517;28;20052;-82
2023/10/01 12:54:25;;;;;;;19.90;10.63;;;24.20;96.60;;;;;;5021923;28;20053;-78
2023/10/01 12:57:13;;;;;;;21.15;10.63;;;24.20;94.70;;;;;;5035041;28;20029;-78
2023/10/01 12:59:44;;;;;;;21.80;11.02;;;24.10;95.70;;;;;;5034281;28;20497;-77
2023/10/01 13:02:22;;;;;;;22.33;10.77;;;24.20;95.40;;;;;;5034855;28;20017;-77
2023/10/01 13:07:45;;;;;;;22.95;11.10;;;24.40;96.10;;;;;;5038289;28;20041;-78
2023/10/01 13:10:12;;;;;;;22.88;10.88;;;24.50;96.10;;;;;;5038133;28;20018;-78
2023/10/01 13:12:56;;;;;;;23.15;11.10;;;24.60;95.30;;;;;;5041309;28;20032;-78
2023/10/01 13:15:33;;;;;;;21.80;11.15;;;24.60;93.80;;;;;;5045636;28;20127;-78
2023/10/01 13:18:00;;;;;;;22.75;11.50;;;24.70;95.10;;;;;;5044471;28;20025;-78
2023/10/01 13:20:28;;;;;;;19.27;10.50;;;24.90;94.90;;;;;;5044143;28;20112;-78
2023/10/01 13:23:07;;;;;;;21.95;10.60;;;25.00;94.90;;;;;;5027255;28;20075;-78
2023/10/01 13:25:34;;;;;;;21.98;11.13;;;25.10;94.30;;;;;;5043405;28;20033;-78
2023/10/01 13:28:04;;;;;;;21.60;10.48;;;25.20;92.40;;;;;;5043438;28;20025;-78
2023/10/01 13:33:25;;;;;;;22.33;11.00;;;25.10;91.90;;;;;;5042571;28;20041;-78
2023/10/01 13:36:12;;;;;;;24.45;11.55;;;25.20;92.00;;;;;;5043498;28;20026;-78
2023/10/01 14:11:05;;;;;;;22.10;11.63;;;26.00;88.50;;;;;;5041744;28;20032;-77
2023/10/01 14:13:35;;;;;;;22.15;11.35;;;26.10;88.50;;;;;;5041912;28;20095;-77
2023/10/01 14:16:17;;;;;;;21.95;11.15;;;26.00;90.20;;;;;;5025802;28;20477;-78
2023/10/01 14:18:57;;;;;;;22.40;11.25;;;26.00;89.50;;;;;;5042146;28;20030;-77
2023/10/01 14:21:29;;;;;;;22.13;11.02;;;26.00;89.50;;;;;;5042464;28;20030;-78
2023/10/01 14:26:46;;;;;;;20.98;10.68;;;25.90;87.40;;;;;;5037660;28;20044;-78
2023/10/01 14:29:12;;;;;;;23.20;12.13;;;25.90;85.90;;;;;;5022952;28;20054;-78
2023/10/01 14:31:48;;;;;;;23.23;12.00;;;25.80;84.70;;;;;;5046784;28;20108;-78
2023/10/01 14:34:17;;;;;;;20.90;10.45;;;25.90;84.30;;;;;;5047771;28;20378;-78
2023/10/01 14:36:43;;;;;;;18.88;10.50;;;26.00;82.50;;;;;;5045008;28;20064;-78
2023/10/01 14:39:10;;;;;;;20.67;10.55;;;25.90;82.00;;;;;;5011097;28;20478;-78
2023/10/01 14:41:42;;;;;;;20.40;10.40;;;25.90;83.60;;;;;;5048649;28;20387;-79
2023/10/01 14:44:15;;;;;;;20.48;10.40;;;25.80;82.60;;;;;;5039042;28;20033;-79
2023/10/01 14:46:41;;;;;;;20.27;10.40;;;25.60;81.10;;;;;;5041290;28;20021;-79